createdAt,value
2022-09-12T00:04:02.434Z,7.05
2022-09-12T00:08:05.494Z,10.55
2022-09-12T00:12:07.778Z,8.52
2022-09-12T00:16:20.171Z,6.50
2022-09-12T00:20:22.221Z,10.02
2022-09-12T00:24:24.500Z,6.28
2022-09-12T00:28:27.162Z,5.45
2022-09-12T00:32:29.283Z,11.07
2022-09-12T00:36:31.224Z,6.03
2022-09-12T00:40:33.438Z,9.85
2022-09-12T00:44:35.323Z,5.68
2022-09-12T00:48:46.792Z,5.05
2022-09-12T00:53:07.497Z,8.55
2022-09-12T00:57:12.329Z,6.90
2022-09-12T01:01:14.409Z,10.60
2022-09-12T01:05:17.384Z,13.57
2022-09-12T01:09:22.364Z,6.15
2022-09-12T01:13:25.741Z,10.30
2022-09-12T01:17:37.457Z,10.02
2022-09-12T01:22:11.325Z,9.30
2022-09-12T01:26:18.977Z,9.82
2022-09-12T01:30:42.795Z,6.93
2022-09-12T01:35:10.844Z,11.95
2022-09-12T01:39:28.136Z,8.38
2022-09-12T01:44:06.922Z,8.00
2022-09-12T01:48:37.356Z,5.53
2022-09-12T01:52:47.468Z,10.10
2022-09-12T01:56:55.675Z,12.93
2022-09-12T02:01:29.780Z,7.63
2022-09-12T02:05:40.093Z,8.73
2022-09-12T02:09:49.427Z,8.88
2022-09-12T02:14:01.546Z,10.90
2022-09-12T02:18:06.704Z,12.38
2022-09-12T02:22:16.014Z,10.75
2022-09-12T02:31:23.224Z,11.95
2022-09-12T02:35:34.394Z,11.77
2022-09-12T02:39:36.903Z,13.70
2022-09-12T02:43:39.464Z,10.80
2022-09-12T02:47:51.336Z,9.05
2022-09-12T02:51:53.818Z,9.30
2022-09-12T02:55:56.234Z,11.55
2022-09-12T03:00:01.794Z,8.82
2022-09-12T03:04:37.544Z,8.02
2022-09-12T03:08:57.446Z,7.38
2022-09-12T03:13:29.355Z,8.25
2022-09-12T03:17:40.825Z,11.13
2022-09-12T03:21:53.272Z,13.57
2022-09-12T03:26:12.959Z,6.50
2022-09-12T03:30:14.946Z,9.77
2022-09-12T03:34:17.895Z,6.43
2022-09-12T03:38:21.002Z,8.93
2022-09-12T03:42:23.230Z,11.82
2022-09-12T03:46:25.198Z,10.23
2022-09-12T03:50:27.797Z,14.80
2022-09-12T03:54:29.970Z,11.93
2022-09-12T03:58:32.222Z,7.50
2022-09-12T04:02:35.083Z,8.65
2022-09-12T04:06:37.404Z,10.07
2022-09-12T04:10:39.459Z,9.73
2022-09-12T04:14:42.145Z,13.73
2022-09-12T04:18:44.864Z,8.45
2022-09-12T04:22:47.438Z,10.75
2022-09-12T04:26:49.464Z,12.35
2022-09-12T04:30:51.933Z,16.08
2022-09-12T04:34:54.059Z,11.00
2022-09-12T04:38:56.548Z,11.75
2022-09-12T04:42:58.525Z,15.45
2022-09-12T04:47:00.585Z,11.85
2022-09-12T04:51:23.384Z,13.55
2022-09-12T04:55:26.424Z,18.05
2022-09-12T04:59:28.466Z,20.08
2022-09-12T05:03:40.205Z,23.05
2022-09-12T05:07:42.144Z,22.42
2022-09-12T05:12:04.983Z,22.75
2022-09-12T05:16:11.178Z,23.38
2022-09-12T05:20:13.514Z,20.85
2022-09-12T05:24:15.604Z,19.27
2022-09-12T05:28:18.202Z,22.70
2022-09-12T05:32:20.886Z,22.63
2022-09-12T05:36:29.639Z,20.50
2022-09-12T05:40:32.177Z,19.23
2022-09-12T05:44:34.444Z,18.77
2022-09-12T05:48:37.624Z,22.27
2022-09-12T05:52:40.184Z,14.05
2022-09-12T05:56:44.178Z,14.38
2022-09-12T06:00:46.576Z,17.17
2022-09-12T06:04:48.642Z,22.25
2022-09-12T06:08:53.810Z,20.23
2022-09-12T06:12:55.896Z,20.00
2022-09-12T06:16:58.303Z,15.32
2022-09-12T06:21:07.851Z,13.38
2022-09-12T06:25:10.078Z,16.20
2022-09-12T06:29:12.114Z,13.85
2022-09-12T06:33:15.207Z,14.88
2022-09-12T06:37:17.316Z,15.77
2022-09-12T06:41:19.664Z,15.90
2022-09-12T06:45:22.877Z,13.23
2022-09-12T06:49:25.166Z,13.73
2022-09-12T06:53:28.887Z,12.23
2022-09-12T06:57:31.665Z,14.20
2022-09-12T07:01:33.811Z,18.77
2022-09-12T07:05:36.158Z,12.35
2022-09-12T07:09:38.235Z,12.57
2022-09-12T07:13:42.285Z,17.40
2022-09-12T07:17:44.301Z,13.73
2022-09-12T07:21:46.483Z,11.77
2022-09-12T07:25:58.818Z,12.02
2022-09-12T07:30:01.694Z,12.38
2022-09-12T07:34:06.570Z,14.38
2022-09-12T07:38:09.565Z,12.32
2022-09-12T07:42:12.706Z,9.60
2022-09-12T07:46:15.096Z,11.25
2022-09-12T07:50:17.226Z,11.25
2022-09-12T07:54:20.051Z,13.90
2022-09-12T07:58:26.185Z,12.02
2022-09-12T08:02:28.378Z,11.82
2022-09-12T08:06:34.140Z,14.13
2022-09-12T08:10:36.891Z,11.55
2022-09-12T08:14:39.159Z,12.63
2022-09-12T08:18:42.265Z,11.48
2022-09-12T08:22:44.638Z,13.63
2022-09-12T08:26:46.898Z,15.63
2022-09-12T08:30:48.878Z,10.68
2022-09-12T08:34:51.129Z,14.30
2022-09-12T08:39:00.262Z,11.10
2022-09-12T08:43:28.904Z,13.40
2022-09-12T08:47:43.515Z,7.85
2022-09-12T08:51:46.075Z,10.40
2022-09-12T08:55:55.165Z,14.13
2022-09-12T08:59:57.522Z,7.78
2022-09-12T09:04:21.690Z,11.77
2022-09-12T09:08:30.367Z,10.13
2022-09-12T09:12:44.094Z,8.23
2022-09-12T09:16:50.941Z,8.45
2022-09-12T09:20:56.317Z,10.90
2022-09-12T09:25:05.036Z,12.05
2022-09-12T09:29:11.723Z,12.77
2022-09-12T09:33:26.755Z,7.95
2022-09-12T09:37:34.658Z,13.55
2022-09-12T09:42:10.187Z,10.77
2022-09-12T09:46:14.231Z,11.18
2022-09-12T09:50:17.720Z,13.48
2022-09-12T09:54:40.881Z,12.80
2022-09-12T09:58:43.734Z,9.88
2022-09-12T10:03:14.017Z,10.18
2022-09-12T10:07:21.249Z,8.68
2022-09-12T10:11:26.976Z,9.18
2022-09-12T10:15:29.673Z,7.45
2022-09-12T10:19:38.004Z,12.82
2022-09-12T10:23:41.615Z,10.05
2022-09-12T10:27:44.598Z,10.30
2022-09-12T10:31:57.710Z,9.10
2022-09-12T10:36:00.609Z,10.93
2022-09-12T10:40:06.060Z,9.18
2022-09-12T10:44:14.746Z,8.10
2022-09-12T10:52:25.814Z,7.30
2022-09-12T10:56:34.377Z,9.93
2022-09-12T11:00:42.451Z,8.48
2022-09-12T11:05:08.029Z,6.97
2022-09-12T11:09:24.784Z,10.65
2022-09-12T11:13:35.874Z,9.90
2022-09-12T11:18:14.837Z,6.20
2022-09-12T11:22:47.905Z,7.50
2022-09-12T11:27:36.888Z,10.18
2022-09-12T11:32:23.429Z,8.02
2022-09-12T11:36:59.125Z,10.10
2022-09-12T11:41:08.501Z,10.27
2022-09-12T11:45:20.105Z,9.18
2022-09-12T11:49:37.050Z,11.68
2022-09-12T11:53:42.743Z,11.80
2022-09-12T11:57:58.644Z,8.50
2022-09-12T12:02:04.677Z,10.57
2022-09-12T12:06:19.448Z,16.67
2022-09-12T12:10:32.538Z,7.38
2022-09-12T12:14:45.926Z,9.15
2022-09-12T12:18:55.943Z,6.97
2022-09-12T12:23:00.115Z,8.55
2022-09-12T12:27:23.250Z,10.63
2022-09-12T12:31:25.543Z,13.63
2022-09-12T12:35:37.566Z,7.93
2022-09-12T12:39:39.756Z,8.30
2022-09-12T12:43:42.094Z,7.13
2022-09-12T12:47:47.667Z,6.85
2022-09-12T12:51:57.354Z,6.65
2022-09-12T12:56:02.848Z,9.40
2022-09-12T13:00:25.299Z,9.05
2022-09-12T13:04:31.716Z,7.85
2022-09-12T13:08:36.965Z,7.60
2022-09-12T13:12:47.995Z,6.07
2022-09-12T13:17:01.976Z,5.97
2022-09-12T13:21:11.931Z,5.50
2022-09-12T13:25:28.974Z,6.63
2022-09-12T13:29:31.646Z,7.68
2022-09-12T13:33:39.873Z,9.02
2022-09-12T13:37:42.382Z,7.25
2022-09-12T13:41:47.140Z,7.40
2022-09-12T13:45:50.804Z,6.20
2022-09-12T13:49:54.148Z,6.30
2022-09-12T13:54:00.269Z,8.10
2022-09-12T13:58:05.208Z,7.82
2022-09-12T14:02:22.251Z,7.85
2022-09-12T14:06:25.158Z,5.60
2022-09-12T14:10:34.864Z,5.90
2022-09-12T14:14:48.019Z,8.75
2022-09-12T14:19:12.686Z,5.05
2022-09-12T14:23:27.696Z,6.88
2022-09-12T14:27:45.828Z,6.53
2022-09-12T14:32:04.354Z,6.07
2022-09-12T14:36:18.324Z,6.22
2022-09-12T14:40:23.763Z,7.63
2022-09-12T14:44:28.356Z,7.97
2022-09-12T14:48:37.583Z,7.28
2022-09-12T14:52:44.252Z,7.78
2022-09-12T14:56:58.936Z,9.00
2022-09-12T15:01:02.821Z,11.23
2022-09-12T15:05:04.855Z,11.82
2022-09-12T15:09:13.610Z,10.98
2022-09-12T15:13:19.835Z,7.15
2022-09-12T15:17:22.332Z,7.72
2022-09-12T15:21:24.559Z,11.13
2022-09-12T15:25:26.876Z,6.82
2022-09-12T15:29:28.913Z,7.80
2022-09-12T15:33:31.552Z,10.50
2022-09-12T15:37:33.633Z,11.13
2022-09-12T15:41:38.176Z,10.75
2022-09-12T15:45:44.736Z,10.00
2022-09-12T15:49:46.922Z,7.72
2022-09-12T15:53:51.154Z,8.40
2022-09-12T15:57:53.617Z,13.07
2022-09-12T16:01:55.820Z,11.13
2022-09-12T16:06:01.746Z,10.70
2022-09-12T16:10:04.176Z,9.80
2022-09-12T16:14:06.691Z,11.48
2022-09-12T16:18:08.955Z,12.80
2022-09-12T16:22:11.375Z,11.82
2022-09-12T16:26:14.000Z,11.27
2022-09-12T16:30:16.604Z,11.88
2022-09-12T16:34:18.775Z,12.75
2022-09-12T16:38:22.670Z,15.77
2022-09-12T16:42:24.749Z,14.55
2022-09-12T16:46:30.661Z,14.60
2022-09-12T16:50:33.101Z,13.02
2022-09-12T16:54:35.468Z,12.98
2022-09-12T16:58:42.062Z,14.52
2022-09-12T17:02:44.986Z,15.23
2022-09-12T17:06:46.905Z,14.32
2022-09-12T17:10:49.255Z,14.27
2022-09-12T17:14:51.904Z,12.55
2022-09-12T17:18:55.015Z,14.90
2022-09-12T17:22:57.338Z,21.48
2022-09-12T17:26:59.799Z,82.35
2022-09-12T17:31:05.459Z,101.55
2022-09-12T17:35:09.380Z,53.13
2022-09-12T17:39:13.120Z,100.43
2022-09-12T17:43:15.611Z,79.15
2022-09-12T17:47:17.659Z,136.18
2022-09-12T17:51:20.962Z,99.28
2022-09-12T17:55:23.104Z,136.35
2022-09-12T17:59:25.935Z,78.50
2022-09-12T18:03:28.177Z,59.85
2022-09-12T18:07:30.556Z,62.60
2022-09-12T18:11:33.561Z,51.38
2022-09-12T18:15:35.942Z,38.75
2022-09-12T18:19:38.744Z,27.77
2022-09-12T18:23:41.329Z,26.95
2022-09-12T18:27:43.618Z,26.00
2022-09-12T18:31:47.115Z,27.92
2022-09-12T18:35:49.160Z,21.75
2022-09-12T18:39:51.546Z,22.15
2022-09-12T18:43:55.778Z,22.08
2022-09-12T18:47:58.193Z,22.88
2022-09-12T18:52:00.277Z,22.40
2022-09-12T18:56:09.249Z,24.83
2022-09-12T19:04:16.717Z,23.70
2022-09-12T19:08:18.757Z,25.10
2022-09-12T19:12:21.057Z,21.65
2022-09-12T19:16:27.100Z,21.25
2022-09-12T19:20:29.447Z,18.58
2022-09-12T19:24:31.567Z,24.63
2022-09-12T19:28:34.698Z,21.65
2022-09-12T19:32:36.659Z,36.63
2022-09-12T19:36:47.446Z,69.43
2022-09-12T19:41:00.647Z,76.10
2022-09-12T19:45:02.957Z,83.20
2022-09-12T19:49:04.933Z,80.35
2022-09-12T19:53:07.083Z,61.15
2022-09-12T19:57:09.009Z,64.40
2022-09-12T20:01:17.135Z,45.63
2022-09-12T20:05:20.671Z,55.83
2022-09-12T20:09:22.917Z,44.97
2022-09-12T20:13:25.003Z,45.70
2022-09-12T20:17:27.205Z,34.17
2022-09-12T20:21:32.749Z,37.88
2022-09-12T20:25:34.975Z,37.80
2022-09-12T20:29:37.033Z,33.03
2022-09-12T20:33:39.672Z,31.10
2022-09-12T20:37:41.707Z,36.55
2022-09-12T20:41:44.044Z,29.40
2022-09-12T20:45:46.059Z,25.77
2022-09-12T20:49:48.276Z,31.80
2022-09-12T20:54:00.330Z,28.42
2022-09-12T20:58:02.555Z,21.85
2022-09-12T21:02:04.670Z,26.17
2022-09-12T21:06:08.905Z,28.88
2022-09-12T21:10:11.519Z,30.92
2022-09-12T21:14:13.805Z,28.45
2022-09-12T21:18:15.897Z,33.92
2022-09-12T21:22:18.293Z,22.77
2022-09-12T21:26:20.438Z,28.75
2022-09-12T21:30:23.094Z,30.35
2022-09-12T21:34:25.165Z,33.35
2022-09-12T21:38:27.404Z,30.05
2022-09-12T21:42:29.468Z,35.17
2022-09-12T21:46:31.752Z,36.22
2022-09-12T21:50:34.051Z,36.85
2022-09-12T21:54:36.480Z,41.08
2022-09-12T21:58:38.675Z,42.78
2022-09-12T22:02:41.226Z,38.83
2022-09-12T22:06:43.520Z,31.80
2022-09-12T22:10:45.741Z,37.75
2022-09-12T22:14:49.145Z,41.33
2022-09-12T22:18:52.694Z,36.53
2022-09-12T22:23:13.060Z,39.80
2022-09-12T22:27:15.255Z,31.70
2022-09-12T22:31:18.161Z,36.70
2022-09-12T22:35:21.177Z,36.97
2022-09-12T22:39:24.225Z,39.05
2022-09-12T22:43:26.464Z,38.28
2022-09-12T22:47:32.500Z,48.38
2022-09-12T22:51:34.880Z,47.30
2022-09-12T22:55:37.865Z,43.40
2022-09-12T22:59:40.259Z,46.47
2022-09-12T23:03:42.715Z,46.00
2022-09-12T23:07:44.966Z,52.05
2022-09-12T23:11:47.097Z,49.83
2022-09-12T23:16:01.022Z,49.05
2022-09-12T23:20:05.055Z,54.13
2022-09-12T23:24:07.450Z,46.83
2022-09-12T23:28:09.718Z,45.35
2022-09-12T23:32:12.123Z,52.70
2022-09-12T23:36:14.440Z,45.55
2022-09-12T23:40:17.244Z,59.97
2022-09-12T23:44:19.320Z,41.08
2022-09-12T23:48:21.585Z,44.85
2022-09-12T23:52:23.677Z,43.20
2022-09-12T23:56:26.211Z,43.28
